sensor_id;sensor_type;location;lat;lon;timestamp;P1;durP1;ratioP1;P2;durP2;ratioP2
21258;SDS011;10787;53.364;-1.480;2022-07-23T00:01:35;4.90;;;2.60;;
21258;SDS011;10787;53.364;-1.480;2022-07-23T00:04:00;4.25;;;2.53;;
21258;SDS011;10787;53.364;-1.480;2022-07-23T00:06:26;3.97;;;2.33;;
21258;SDS011;10787;53.364;-1.480;2022-07-23T00:08:52;3.38;;;2.20;;
21258;SDS011;10787;53.364;-1.480;2022-07-23T00:11:18;3.35;;;2.42;;
21258;SDS011;10787;53.364;-1.480;2022-07-23T00:13:44;4.90;;;2.67;;
21258;SDS011;10787;53.364;-1.480;2022-07-23T00:16:10;5.75;;;2.80;;
21258;SDS011;10787;53.364;-1.480;2022-07-23T00:18:36;4.78;;;2.63;;
21258;SDS011;10787;53.364;-1.480;2022-07-23T00:21:01;5.30;;;2.70;;
21258;SDS011;10787;53.364;-1.480;2022-07-23T00:23:27;4.15;;;2.40;;
21258;SDS011;10787;53.364;-1.480;2022-07-23T00:25:54;4.40;;;2.50;;
21258;SDS011;10787;53.364;-1.480;2022-07-23T00:28:20;3.80;;;2.42;;
21258;SDS011;10787;53.364;-1.480;2022-07-23T00:30:46;6.78;;;2.88;;
21258;SDS011;10787;53.364;-1.480;2022-07-23T00:33:12;5.53;;;2.35;;
21258;SDS011;10787;53.364;-1.480;2022-07-23T00:35:39;6.18;;;3.00;;
21258;SDS011;10787;53.364;-1.480;2022-07-23T00:38:06;5.03;;;2.70;;
21258;SDS011;10787;53.364;-1.480;2022-07-23T00:40:34;5.07;;;2.63;;
21258;SDS011;10787;53.364;-1.480;2022-07-23T00:43:00;4.43;;;2.67;;
21258;SDS011;10787;53.364;-1.480;2022-07-23T00:45:27;6.50;;;2.70;;
21258;SDS011;10787;53.364;-1.480;2022-07-23T00:47:53;5.03;;;2.50;;
21258;SDS011;10787;53.364;-1.480;2022-07-23T00:50:20;3.30;;;2.60;;
21258;SDS011;10787;53.364;-1.480;2022-07-23T00:52:46;4.45;;;2.78;;
21258;SDS011;10787;53.364;-1.480;2022-07-23T00:55:12;6.15;;;3.13;;
21258;SDS011;10787;53.364;-1.480;2022-07-23T00:57:39;7.78;;;3.05;;
21258;SDS011;10787;53.364;-1.480;2022-07-23T01:00:08;6.60;;;3.25;;
21258;SDS011;10787;53.364;-1.480;2022-07-23T01:02:36;4.35;;;2.97;;
21258;SDS011;10787;53.364;-1.480;2022-07-23T01:05:02;5.60;;;2.70;;
21258;SDS011;10787;53.364;-1.480;2022-07-23T01:07:29;4.35;;;2.90;;
21258;SDS011;10787;53.364;-1.480;2022-07-23T01:09:55;6.18;;;3.00;;
21258;SDS011;10787;53.364;-1.480;2022-07-23T01:12:21;3.65;;;2.40;;
21258;SDS011;10787;53.364;-1.480;2022-07-23T01:14:57;5.80;;;3.20;;
21258;SDS011;10787;53.364;-1.480;2022-07-23T01:17:24;7.28;;;3.22;;
21258;SDS011;10787;53.364;-1.480;2022-07-23T01:19:50;6.13;;;3.13;;
21258;SDS011;10787;53.364;-1.480;2022-07-23T01:22:17;4.95;;;3.35;;
21258;SDS011;10787;53.364;-1.480;2022-07-23T01:24:44;5.68;;;3.33;;
21258;SDS011;10787;53.364;-1.480;2022-07-23T01:27:10;4.53;;;3.10;;
21258;SDS011;10787;53.364;-1.480;2022-07-23T01:29:38;4.28;;;2.97;;
21258;SDS011;10787;53.364;-1.480;2022-07-23T01:32:04;5.50;;;3.53;;
21258;SDS011;10787;53.364;-1.480;2022-07-23T01:34:30;6.85;;;3.30;;
21258;SDS011;10787;53.364;-1.480;2022-07-23T01:36:58;7.40;;;3.50;;
21258;SDS011;10787;53.364;-1.480;2022-07-23T01:39:23;6.68;;;3.42;;
21258;SDS011;10787;53.364;-1.480;2022-07-23T01:41:50;5.72;;;3.10;;
21258;SDS011;10787;53.364;-1.480;2022-07-23T01:44:15;4.50;;;3.28;;
21258;SDS011;10787;53.364;-1.480;2022-07-23T01:46:41;6.10;;;3.22;;
21258;SDS011;10787;53.364;-1.480;2022-07-23T01:49:07;4.55;;;3.33;;
21258;SDS011;10787;53.364;-1.480;2022-07-23T01:51:34;5.78;;;3.03;;
21258;SDS011;10787;53.364;-1.480;2022-07-23T01:54:00;5.45;;;3.15;;
21258;SDS011;10787;53.364;-1.480;2022-07-23T01:56:25;4.30;;;3.03;;
21258;SDS011;10787;53.364;-1.480;2022-07-23T01:58:51;5.47;;;3.35;;
21258;SDS011;10787;53.364;-1.480;2022-07-23T02:01:18;3.88;;;3.17;;
21258;SDS011;10787;53.364;-1.480;2022-07-23T02:03:43;4.90;;;3.40;;
21258;SDS011;10787;53.364;-1.480;2022-07-23T02:06:09;6.35;;;3.30;;
21258;SDS011;10787;53.364;-1.480;2022-07-23T02:08:35;7.05;;;3.15;;
21258;SDS011;10787;53.364;-1.480;2022-07-23T02:11:01;4.85;;;3.25;;
21258;SDS011;10787;53.364;-1.480;2022-07-23T02:13:27;4.38;;;3.22;;
21258;SDS011;10787;53.364;-1.480;2022-07-23T02:15:54;4.47;;;3.45;;
21258;SDS011;10787;53.364;-1.480;2022-07-23T02:18:20;7.10;;;3.53;;
21258;SDS011;10787;53.364;-1.480;2022-07-23T02:20:45;5.47;;;3.38;;
21258;SDS011;10787;53.364;-1.480;2022-07-23T02:23:11;8.15;;;3.63;;
21258;SDS011;10787;53.364;-1.480;2022-07-23T02:25:37;5.28;;;3.17;;
21258;SDS011;10787;53.364;-1.480;2022-07-23T02:28:04;6.97;;;3.30;;
21258;SDS011;10787;53.364;-1.480;2022-07-23T02:30:30;4.05;;;3.33;;
21258;SDS011;10787;53.364;-1.480;2022-07-23T02:32:56;6.57;;;3.72;;
21258;SDS011;10787;53.364;-1.480;2022-07-23T02:35:21;6.25;;;3.45;;
21258;SDS011;10787;53.364;-1.480;2022-07-23T02:37:48;6.65;;;3.78;;
21258;SDS011;10787;53.364;-1.480;2022-07-23T02:40:14;4.43;;;3.58;;
21258;SDS011;10787;53.364;-1.480;2022-07-23T02:42:39;5.13;;;3.20;;
21258;SDS011;10787;53.364;-1.480;2022-07-23T02:45:06;4.43;;;3.60;;
21258;SDS011;10787;53.364;-1.480;2022-07-23T02:47:32;6.65;;;3.50;;
21258;SDS011;10787;53.364;-1.480;2022-07-23T02:49:58;6.80;;;3.45;;
21258;SDS011;10787;53.364;-1.480;2022-07-23T02:52:23;5.47;;;3.67;;
21258;SDS011;10787;53.364;-1.480;2022-07-23T02:54:49;7.15;;;3.97;;
21258;SDS011;10787;53.364;-1.480;2022-07-23T02:57:15;4.57;;;3.50;;
21258;SDS011;10787;53.364;-1.480;2022-07-23T02:59:41;5.15;;;3.45;;
21258;SDS011;10787;53.364;-1.480;2022-07-23T03:02:06;3.75;;;3.30;;
21258;SDS011;10787;53.364;-1.480;2022-07-23T03:04:32;5.38;;;3.40;;
21258;SDS011;10787;53.364;-1.480;2022-07-23T03:06:58;5.50;;;3.63;;
21258;SDS011;10787;53.364;-1.480;2022-07-23T03:09:24;4.60;;;3.67;;
21258;SDS011;10787;53.364;-1.480;2022-07-23T03:11:50;6.72;;;3.75;;
21258;SDS011;10787;53.364;-1.480;2022-07-23T03:14:15;6.78;;;3.70;;
21258;SDS011;10787;53.364;-1.480;2022-07-23T03:16:41;6.03;;;4.13;;
21258;SDS011;10787;53.364;-1.480;2022-07-23T03:19:07;8.65;;;4.07;;
21258;SDS011;10787;53.364;-1.480;2022-07-23T03:21:33;6.22;;;3.80;;
21258;SDS011;10787;53.364;-1.480;2022-07-23T03:23:59;5.72;;;3.85;;
21258;SDS011;10787;53.364;-1.480;2022-07-23T03:26:26;6.00;;;3.72;;
21258;SDS011;10787;53.364;-1.480;2022-07-23T03:28:51;4.70;;;4.03;;
21258;SDS011;10787;53.364;-1.480;2022-07-23T03:31:18;4.15;;;3.60;;
21258;SDS011;10787;53.364;-1.480;2022-07-23T03:33:44;5.55;;;4.03;;
21258;SDS011;10787;53.364;-1.480;2022-07-23T03:36:09;5.30;;;3.78;;
21258;SDS011;10787;53.364;-1.480;2022-07-23T03:38:35;6.45;;;4.30;;
21258;SDS011;10787;53.364;-1.480;2022-07-23T03:41:01;5.03;;;4.00;;
21258;SDS011;10787;53.364;-1.480;2022-07-23T03:43:27;4.68;;;3.70;;
21258;SDS011;10787;53.364;-1.480;2022-07-23T03:45:52;5.97;;;4.18;;
21258;SDS011;10787;53.364;-1.480;2022-07-23T03:48:18;6.10;;;4.20;;
21258;SDS011;10787;53.364;-1.480;2022-07-23T03:50:44;5.85;;;4.38;;
21258;SDS011;10787;53.364;-1.480;2022-07-23T03:53:10;5.15;;;4.00;;
21258;SDS011;10787;53.364;-1.480;2022-07-23T03:55:35;5.97;;;4.28;;
21258;SDS011;10787;53.364;-1.480;2022-07-23T03:58:01;5.40;;;3.78;;
21258;SDS011;10787;53.364;-1.480;2022-07-23T04:00:28;5.97;;;4.03;;
21258;SDS011;10787;53.364;-1.480;2022-07-23T04:02:54;9.27;;;4.53;;
21258;SDS011;10787;53.364;-1.480;2022-07-23T04:05:19;9.30;;;4.32;;
21258;SDS011;10787;53.364;-1.480;2022-07-23T04:07:45;6.50;;;4.75;;
21258;SDS011;10787;53.364;-1.480;2022-07-23T04:10:11;7.90;;;4.70;;
21258;SDS011;10787;53.364;-1.480;2022-07-23T04:12:37;6.43;;;4.90;;
21258;SDS011;10787;53.364;-1.480;2022-07-23T04:15:03;6.60;;;4.90;;
21258;SDS011;10787;53.364;-1.480;2022-07-23T04:17:29;8.30;;;4.95;;
21258;SDS011;10787;53.364;-1.480;2022-07-23T04:19:55;9.93;;;5.45;;
21258;SDS011;10787;53.364;-1.480;2022-07-23T04:22:21;7.43;;;5.28;;
21258;SDS011;10787;53.364;-1.480;2022-07-23T04:24:47;7.18;;;4.82;;
21258;SDS011;10787;53.364;-1.480;2022-07-23T04:27:17;8.60;;;6.10;;
21258;SDS011;10787;53.364;-1.480;2022-07-23T04:30:04;8.77;;;6.20;;
21258;SDS011;10787;53.364;-1.480;2022-07-23T04:32:30;7.72;;;5.32;;
21258;SDS011;10787;53.364;-1.480;2022-07-23T04:34:56;8.43;;;5.57;;
21258;SDS011;10787;53.364;-1.480;2022-07-23T04:37:21;7.05;;;5.75;;
21258;SDS011;10787;53.364;-1.480;2022-07-23T04:39:47;11.70;;;6.30;;
21258;SDS011;10787;53.364;-1.480;2022-07-23T04:42:13;7.80;;;5.93;;
21258;SDS011;10787;53.364;-1.480;2022-07-23T04:44:39;8.65;;;5.90;;
21258;SDS011;10787;53.364;-1.480;2022-07-23T04:47:04;10.38;;;6.55;;
21258;SDS011;10787;53.364;-1.480;2022-07-23T04:49:30;10.15;;;6.25;;
21258;SDS011;10787;53.364;-1.480;2022-07-23T04:51:56;11.18;;;6.47;;
21258;SDS011;10787;53.364;-1.480;2022-07-23T04:54:22;10.65;;;6.60;;
21258;SDS011;10787;53.364;-1.480;2022-07-23T04:56:47;12.10;;;6.15;;
21258;SDS011;10787;53.364;-1.480;2022-07-23T04:59:15;6.95;;;5.53;;
21258;SDS011;10787;53.364;-1.480;2022-07-23T05:01:41;11.27;;;6.53;;
21258;SDS011;10787;53.364;-1.480;2022-07-23T05:04:08;8.82;;;6.30;;
21258;SDS011;10787;53.364;-1.480;2022-07-23T05:06:34;9.13;;;6.45;;
21258;SDS011;10787;53.364;-1.480;2022-07-23T05:08:59;11.30;;;7.00;;
21258;SDS011;10787;53.364;-1.480;2022-07-23T05:11:25;11.07;;;7.10;;
21258;SDS011;10787;53.364;-1.480;2022-07-23T05:13:51;11.93;;;7.47;;
21258;SDS011;10787;53.364;-1.480;2022-07-23T05:16:17;11.50;;;7.50;;
21258;SDS011;10787;53.364;-1.480;2022-07-23T05:18:43;12.20;;;8.35;;
21258;SDS011;10787;53.364;-1.480;2022-07-23T05:21:09;17.00;;;9.35;;
21258;SDS011;10787;53.364;-1.480;2022-07-23T05:23:35;18.65;;;9.55;;
21258;SDS011;10787;53.364;-1.480;2022-07-23T05:26:01;15.65;;;9.48;;
21258;SDS011;10787;53.364;-1.480;2022-07-23T05:28:26;17.83;;;10.10;;
21258;SDS011;10787;53.364;-1.480;2022-07-23T05:30:52;19.92;;;10.98;;
21258;SDS011;10787;53.364;-1.480;2022-07-23T05:33:19;15.48;;;10.60;;
21258;SDS011;10787;53.364;-1.480;2022-07-23T05:35:45;19.85;;;11.02;;
21258;SDS011;10787;53.364;-1.480;2022-07-23T05:38:11;22.77;;;11.95;;
21258;SDS011;10787;53.364;-1.480;2022-07-23T05:40:37;19.77;;;11.60;;
21258;SDS011;10787;53.364;-1.480;2022-07-23T05:43:02;19.55;;;11.75;;
21258;SDS011;10787;53.364;-1.480;2022-07-23T05:45:28;20.55;;;11.75;;
21258;SDS011;10787;53.364;-1.480;2022-07-23T05:47:55;17.83;;;11.10;;
21258;SDS011;10787;53.364;-1.480;2022-07-23T05:50:20;17.98;;;11.27;;
21258;SDS011;10787;53.364;-1.480;2022-07-23T05:52:47;18.45;;;11.85;;
21258;SDS011;10787;53.364;-1.480;2022-07-23T05:55:13;20.17;;;12.10;;
21258;SDS011;10787;53.364;-1.480;2022-07-23T05:57:39;21.13;;;12.98;;
21258;SDS011;10787;53.364;-1.480;2022-07-23T06:00:06;25.67;;;14.63;;
21258;SDS011;10787;53.364;-1.480;2022-07-23T06:02:33;27.17;;;15.10;;
21258;SDS011;10787;53.364;-1.480;2022-07-23T06:04:59;26.17;;;14.95;;
21258;SDS011;10787;53.364;-1.480;2022-07-23T06:07:25;27.13;;;15.25;;
21258;SDS011;10787;53.364;-1.480;2022-07-23T06:09:51;30.42;;;15.70;;
21258;SDS011;10787;53.364;-1.480;2022-07-23T06:12:17;26.17;;;15.57;;
21258;SDS011;10787;53.364;-1.480;2022-07-23T06:14:43;26.55;;;15.73;;
21258;SDS011;10787;53.364;-1.480;2022-07-23T06:17:09;29.25;;;16.70;;
21258;SDS011;10787;53.364;-1.480;2022-07-23T06:19:35;30.80;;;18.10;;
21258;SDS011;10787;53.364;-1.480;2022-07-23T06:22:01;29.23;;;16.88;;
21258;SDS011;10787;53.364;-1.480;2022-07-23T06:24:27;32.80;;;18.23;;
21258;SDS011;10787;53.364;-1.480;2022-07-23T06:26:53;34.15;;;18.98;;
21258;SDS011;10787;53.364;-1.480;2022-07-23T06:29:19;39.25;;;21.45;;
21258;SDS011;10787;53.364;-1.480;2022-07-23T06:31:44;35.17;;;21.02;;
21258;SDS011;10787;53.364;-1.480;2022-07-23T06:34:11;34.90;;;20.88;;
21258;SDS011;10787;53.364;-1.480;2022-07-23T06:36:37;36.03;;;20.92;;
21258;SDS011;10787;53.364;-1.480;2022-07-23T06:39:03;36.53;;;21.02;;
21258;SDS011;10787;53.364;-1.480;2022-07-23T06:41:29;38.80;;;22.35;;
21258;SDS011;10787;53.364;-1.480;2022-07-23T06:43:55;42.95;;;22.17;;
21258;SDS011;10787;53.364;-1.480;2022-07-23T06:46:20;37.67;;;21.00;;
21258;SDS011;10787;53.364;-1.480;2022-07-23T06:48:47;35.65;;;20.50;;
21258;SDS011;10787;53.364;-1.480;2022-07-23T06:51:13;35.88;;;20.73;;
21258;SDS011;10787;53.364;-1.480;2022-07-23T06:53:39;35.85;;;21.25;;
21258;SDS011;10787;53.364;-1.480;2022-07-23T06:56:06;35.40;;;20.45;;
21258;SDS011;10787;53.364;-1.480;2022-07-23T06:58:32;37.95;;;20.88;;
21258;SDS011;10787;53.364;-1.480;2022-07-23T07:00:58;34.92;;;19.88;;
21258;SDS011;10787;53.364;-1.480;2022-07-23T07:03:23;27.23;;;17.83;;
21258;SDS011;10787;53.364;-1.480;2022-07-23T07:05:49;31.98;;;18.08;;
21258;SDS011;10787;53.364;-1.480;2022-07-23T07:08:15;27.80;;;17.58;;
21258;SDS011;10787;53.364;-1.480;2022-07-23T07:10:41;26.20;;;16.05;;
21258;SDS011;10787;53.364;-1.480;2022-07-23T07:13:07;22.88;;;13.95;;
21258;SDS011;10787;53.364;-1.480;2022-07-23T07:15:33;25.92;;;14.88;;
21258;SDS011;10787;53.364;-1.480;2022-07-23T07:17:59;24.60;;;15.52;;
21258;SDS011;10787;53.364;-1.480;2022-07-23T07:20:26;18.27;;;12.05;;
21258;SDS011;10787;53.364;-1.480;2022-07-23T07:22:52;17.30;;;11.75;;
21258;SDS011;10787;53.364;-1.480;2022-07-23T07:25:17;19.13;;;12.60;;
21258;SDS011;10787;53.364;-1.480;2022-07-23T07:27:43;16.30;;;11.10;;
21258;SDS011;10787;53.364;-1.480;2022-07-23T07:30:09;17.83;;;10.77;;
21258;SDS011;10787;53.364;-1.480;2022-07-23T07:32:36;13.35;;;9.07;;
21258;SDS011;10787;53.364;-1.480;2022-07-23T07:35:03;14.48;;;9.23;;
21258;SDS011;10787;53.364;-1.480;2022-07-23T07:37:29;16.50;;;10.52;;
21258;SDS011;10787;53.364;-1.480;2022-07-23T07:39:55;18.05;;;10.48;;
21258;SDS011;10787;53.364;-1.480;2022-07-23T07:42:21;17.33;;;10.55;;
21258;SDS011;10787;53.364;-1.480;2022-07-23T07:44:47;20.25;;;12.73;;
21258;SDS011;10787;53.364;-1.480;2022-07-23T07:47:13;23.00;;;13.95;;
21258;SDS011;10787;53.364;-1.480;2022-07-23T07:49:43;19.70;;;13.27;;
21258;SDS011;10787;53.364;-1.480;2022-07-23T07:52:09;21.20;;;13.80;;
21258;SDS011;10787;53.364;-1.480;2022-07-23T07:54:36;21.90;;;13.90;;
21258;SDS011;10787;53.364;-1.480;2022-07-23T07:57:02;21.48;;;14.35;;
21258;SDS011;10787;53.364;-1.480;2022-07-23T07:59:28;19.60;;;13.93;;
21258;SDS011;10787;53.364;-1.480;2022-07-23T08:01:54;21.52;;;14.45;;
21258;SDS011;10787;53.364;-1.480;2022-07-23T08:04:20;19.85;;;14.45;;
21258;SDS011;10787;53.364;-1.480;2022-07-23T08:06:46;25.30;;;13.82;;
21258;SDS011;10787;53.364;-1.480;2022-07-23T08:09:12;20.77;;;12.45;;
21258;SDS011;10787;53.364;-1.480;2022-07-23T08:11:37;16.42;;;11.77;;
21258;SDS011;10787;53.364;-1.480;2022-07-23T08:14:04;17.33;;;12.02;;
21258;SDS011;10787;53.364;-1.480;2022-07-23T08:16:29;18.02;;;11.93;;
21258;SDS011;10787;53.364;-1.480;2022-07-23T08:18:55;16.15;;;12.25;;
21258;SDS011;10787;53.364;-1.480;2022-07-23T08:21:21;16.27;;;12.00;;
21258;SDS011;10787;53.364;-1.480;2022-07-23T08:23:47;22.77;;;15.23;;
21258;SDS011;10787;53.364;-1.480;2022-07-23T08:26:13;18.98;;;12.75;;
21258;SDS011;10787;53.364;-1.480;2022-07-23T08:28:39;28.23;;;18.20;;
21258;SDS011;10787;53.364;-1.480;2022-07-23T08:31:04;20.05;;;12.15;;
21258;SDS011;10787;53.364;-1.480;2022-07-23T08:33:33;15.63;;;11.38;;
21258;SDS011;10787;53.364;-1.480;2022-07-23T08:35:59;15.73;;;11.60;;
21258;SDS011;10787;53.364;-1.480;2022-07-23T08:38:28;19.23;;;11.70;;
21258;SDS011;10787;53.364;-1.480;2022-07-23T08:40:54;14.80;;;11.23;;
21258;SDS011;10787;53.364;-1.480;2022-07-23T08:43:23;16.20;;;11.32;;
21258;SDS011;10787;53.364;-1.480;2022-07-23T08:46:00;14.68;;;10.68;;
21258;SDS011;10787;53.364;-1.480;2022-07-23T08:48:28;14.57;;;10.80;;
21258;SDS011;10787;53.364;-1.480;2022-07-23T08:50:59;16.33;;;10.73;;
21258;SDS011;10787;53.364;-1.480;2022-07-23T08:53:27;13.75;;;10.30;;
21258;SDS011;10787;53.364;-1.480;2022-07-23T08:55:55;15.50;;;10.68;;
21258;SDS011;10787;53.364;-1.480;2022-07-23T08:58:23;15.48;;;10.85;;
21258;SDS011;10787;53.364;-1.480;2022-07-23T09:00:50;15.93;;;10.73;;
21258;SDS011;10787;53.364;-1.480;2022-07-23T09:05:43;13.90;;;10.25;;
21258;SDS011;10787;53.364;-1.480;2022-07-23T09:11:11;16.55;;;11.05;;
21258;SDS011;10787;53.364;-1.480;2022-07-23T09:18:35;13.25;;;10.57;;
21258;SDS011;10787;53.364;-1.480;2022-07-23T09:21:07;16.08;;;10.75;;
21258;SDS011;10787;53.364;-1.480;2022-07-23T09:26:22;17.35;;;10.73;;
21258;SDS011;10787;53.364;-1.480;2022-07-23T09:28:50;13.43;;;10.13;;
21258;SDS011;10787;53.364;-1.480;2022-07-23T09:31:20;12.68;;;10.15;;
21258;SDS011;10787;53.364;-1.480;2022-07-23T09:33:46;13.85;;;9.48;;
21258;SDS011;10787;53.364;-1.480;2022-07-23T09:36:12;11.90;;;8.50;;
21258;SDS011;10787;53.364;-1.480;2022-07-23T09:38:48;11.35;;;8.68;;
21258;SDS011;10787;53.364;-1.480;2022-07-23T09:41:16;15.23;;;8.23;;
21258;SDS011;10787;53.364;-1.480;2022-07-23T09:43:42;12.38;;;8.23;;
21258;SDS011;10787;53.364;-1.480;2022-07-23T09:48:51;9.98;;;7.93;;
21258;SDS011;10787;53.364;-1.480;2022-07-23T09:51:19;10.73;;;7.85;;
21258;SDS011;10787;53.364;-1.480;2022-07-23T09:53:57;10.98;;;7.97;;
21258;SDS011;10787;53.364;-1.480;2022-07-23T09:56:23;10.95;;;7.55;;
21258;SDS011;10787;53.364;-1.480;2022-07-23T09:58:51;11.15;;;7.70;;
21258;SDS011;10787;53.364;-1.480;2022-07-23T10:01:26;12.38;;;8.88;;
21258;SDS011;10787;53.364;-1.480;2022-07-23T10:03:54;12.65;;;7.88;;
21258;SDS011;10787;53.364;-1.480;2022-07-23T10:06:20;11.18;;;7.93;;
21258;SDS011;10787;53.364;-1.480;2022-07-23T10:08:46;10.52;;;7.80;;
21258;SDS011;10787;53.364;-1.480;2022-07-23T10:11:15;11.90;;;8.63;;
21258;SDS011;10787;53.364;-1.480;2022-07-23T10:13:42;10.55;;;8.23;;
21258;SDS011;10787;53.364;-1.480;2022-07-23T10:16:19;11.45;;;8.38;;
21258;SDS011;10787;53.364;-1.480;2022-07-23T10:18:46;11.88;;;8.93;;
21258;SDS011;10787;53.364;-1.480;2022-07-23T10:21:12;9.85;;;8.15;;
21258;SDS011;10787;53.364;-1.480;2022-07-23T10:24:01;10.35;;;7.60;;
21258;SDS011;10787;53.364;-1.480;2022-07-23T10:26:53;11.05;;;7.80;;
21258;SDS011;10787;53.364;-1.480;2022-07-23T10:32:20;10.48;;;8.05;;
21258;SDS011;10787;53.364;-1.480;2022-07-23T10:34:55;11.73;;;8.05;;
21258;SDS011;10787;53.364;-1.480;2022-07-23T10:37:34;11.35;;;8.05;;
21258;SDS011;10787;53.364;-1.480;2022-07-23T10:40:22;11.68;;;7.80;;
21258;SDS011;10787;53.364;-1.480;2022-07-23T10:42:49;9.02;;;7.18;;
21258;SDS011;10787;53.364;-1.480;2022-07-23T10:45:34;10.35;;;7.72;;
21258;SDS011;10787;53.364;-1.480;2022-07-23T10:50:44;11.02;;;8.20;;
21258;SDS011;10787;53.364;-1.480;2022-07-23T10:53:29;11.45;;;7.60;;
21258;SDS011;10787;53.364;-1.480;2022-07-23T10:56:14;9.15;;;7.95;;
21258;SDS011;10787;53.364;-1.480;2022-07-23T10:58:47;12.02;;;8.07;;
21258;SDS011;10787;53.364;-1.480;2022-07-23T11:04:03;11.27;;;8.13;;
21258;SDS011;10787;53.364;-1.480;2022-07-23T11:09:28;13.63;;;9.43;;
21258;SDS011;10787;53.364;-1.480;2022-07-23T11:14:59;11.10;;;8.02;;
21258;SDS011;10787;53.364;-1.480;2022-07-23T11:17:25;10.65;;;7.10;;
21258;SDS011;10787;53.364;-1.480;2022-07-23T11:25:32;7.70;;;6.18;;
21258;SDS011;10787;53.364;-1.480;2022-07-23T11:30:53;7.32;;;5.20;;
21258;SDS011;10787;53.364;-1.480;2022-07-23T11:33:19;10.38;;;5.78;;
21258;SDS011;10787;53.364;-1.480;2022-07-23T11:35:48;7.25;;;5.63;;
21258;SDS011;10787;53.364;-1.480;2022-07-23T11:38:24;9.10;;;5.47;;
21258;SDS011;10787;53.364;-1.480;2022-07-23T11:40:53;9.38;;;6.15;;
21258;SDS011;10787;53.364;-1.480;2022-07-23T11:43:22;7.05;;;5.88;;
21258;SDS011;10787;53.364;-1.480;2022-07-23T11:45:50;9.10;;;4.97;;
21258;SDS011;10787;53.364;-1.480;2022-07-23T11:48:22;7.88;;;5.90;;
21258;SDS011;10787;53.364;-1.480;2022-07-23T11:50:50;8.27;;;5.60;;
21258;SDS011;10787;53.364;-1.480;2022-07-23T11:55:51;7.90;;;5.35;;
21258;SDS011;10787;53.364;-1.480;2022-07-23T11:58:18;8.07;;;4.75;;
21258;SDS011;10787;53.364;-1.480;2022-07-23T12:00:44;6.45;;;4.60;;
21258;SDS011;10787;53.364;-1.480;2022-07-23T12:03:10;6.35;;;4.50;;
21258;SDS011;10787;53.364;-1.480;2022-07-23T12:05:37;8.27;;;4.50;;
21258;SDS011;10787;53.364;-1.480;2022-07-23T12:08:04;8.23;;;4.53;;
21258;SDS011;10787;53.364;-1.480;2022-07-23T12:10:34;6.13;;;3.97;;
21258;SDS011;10787;53.364;-1.480;2022-07-23T12:13:03;4.50;;;3.35;;
21258;SDS011;10787;53.364;-1.480;2022-07-23T12:15:31;5.75;;;3.55;;
21258;SDS011;10787;53.364;-1.480;2022-07-23T12:18:00;7.50;;;3.50;;
21258;SDS011;10787;53.364;-1.480;2022-07-23T12:20:31;7.28;;;3.10;;
21258;SDS011;10787;53.364;-1.480;2022-07-23T12:23:04;4.90;;;3.00;;
21258;SDS011;10787;53.364;-1.480;2022-07-23T12:25:32;5.32;;;3.20;;
21258;SDS011;10787;53.364;-1.480;2022-07-23T12:30:38;3.67;;;2.90;;
21258;SDS011;10787;53.364;-1.480;2022-07-23T12:33:08;5.68;;;3.28;;
21258;SDS011;10787;53.364;-1.480;2022-07-23T12:35:45;6.25;;;3.22;;
21258;SDS011;10787;53.364;-1.480;2022-07-23T12:38:12;3.88;;;2.83;;
21258;SDS011;10787;53.364;-1.480;2022-07-23T12:40:44;6.03;;;3.13;;
21258;SDS011;10787;53.364;-1.480;2022-07-23T12:45:54;3.53;;;2.92;;
21258;SDS011;10787;53.364;-1.480;2022-07-23T12:48:27;4.55;;;3.10;;
21258;SDS011;10787;53.364;-1.480;2022-07-23T12:50:59;5.03;;;3.08;;
21258;SDS011;10787;53.364;-1.480;2022-07-23T12:55:56;5.05;;;3.42;;
21258;SDS011;10787;53.364;-1.480;2022-07-23T13:06:36;7.43;;;3.00;;
21258;SDS011;10787;53.364;-1.480;2022-07-23T13:09:03;3.50;;;2.53;;
21258;SDS011;10787;53.364;-1.480;2022-07-23T13:11:31;4.00;;;2.30;;
21258;SDS011;10787;53.364;-1.480;2022-07-23T13:13:58;5.13;;;2.92;;
21258;SDS011;10787;53.364;-1.480;2022-07-23T13:16:26;2.78;;;2.30;;
21258;SDS011;10787;53.364;-1.480;2022-07-23T13:18:52;4.63;;;2.58;;
21258;SDS011;10787;53.364;-1.480;2022-07-23T13:21:18;6.75;;;2.55;;
21258;SDS011;10787;53.364;-1.480;2022-07-23T13:23:44;2.40;;;2.15;;
21258;SDS011;10787;53.364;-1.480;2022-07-23T13:26:10;3.38;;;2.00;;
21258;SDS011;10787;53.364;-1.480;2022-07-23T13:28:36;2.15;;;1.90;;
21258;SDS011;10787;53.364;-1.480;2022-07-23T13:31:01;2.85;;;2.00;;
21258;SDS011;10787;53.364;-1.480;2022-07-23T13:33:27;3.60;;;2.10;;
21258;SDS011;10787;53.364;-1.480;2022-07-23T13:35:53;2.67;;;2.00;;
21258;SDS011;10787;53.364;-1.480;2022-07-23T13:38:19;3.10;;;2.13;;
21258;SDS011;10787;53.364;-1.480;2022-07-23T13:40:47;3.78;;;2.13;;
21258;SDS011;10787;53.364;-1.480;2022-07-23T13:43:14;4.22;;;2.20;;
21258;SDS011;10787;53.364;-1.480;2022-07-23T13:45:43;5.22;;;2.08;;
21258;SDS011;10787;53.364;-1.480;2022-07-23T13:48:10;4.20;;;2.00;;
21258;SDS011;10787;53.364;-1.480;2022-07-23T13:50:37;4.00;;;2.80;;
21258;SDS011;10787;53.364;-1.480;2022-07-23T13:53:08;3.00;;;2.67;;
21258;SDS011;10787;53.364;-1.480;2022-07-23T13:55:36;3.97;;;3.10;;
21258;SDS011;10787;53.364;-1.480;2022-07-23T13:58:03;3.42;;;3.13;;
21258;SDS011;10787;53.364;-1.480;2022-07-23T14:00:30;5.00;;;3.20;;
21258;SDS011;10787;53.364;-1.480;2022-07-23T14:02:57;3.28;;;2.80;;
21258;SDS011;10787;53.364;-1.480;2022-07-23T14:05:24;5.28;;;3.50;;
21258;SDS011;10787;53.364;-1.480;2022-07-23T14:07:50;4.93;;;3.40;;
21258;SDS011;10787;53.364;-1.480;2022-07-23T14:10:17;4.43;;;3.53;;
21258;SDS011;10787;53.364;-1.480;2022-07-23T14:12:44;6.10;;;4.28;;
21258;SDS011;10787;53.364;-1.480;2022-07-23T14:15:11;4.10;;;3.25;;
21258;SDS011;10787;53.364;-1.480;2022-07-23T14:17:38;4.55;;;3.80;;
21258;SDS011;10787;53.364;-1.480;2022-07-23T14:20:06;4.78;;;3.38;;
21258;SDS011;10787;53.364;-1.480;2022-07-23T14:22:34;6.80;;;3.33;;
21258;SDS011;10787;53.364;-1.480;2022-07-23T14:25:00;5.05;;;3.80;;
21258;SDS011;10787;53.364;-1.480;2022-07-23T14:27:27;4.50;;;3.67;;
21258;SDS011;10787;53.364;-1.480;2022-07-23T14:29:53;5.93;;;3.42;;
21258;SDS011;10787;53.364;-1.480;2022-07-23T14:32:20;4.30;;;3.65;;
21258;SDS011;10787;53.364;-1.480;2022-07-23T14:34:46;4.55;;;3.70;;
21258;SDS011;10787;53.364;-1.480;2022-07-23T14:37:12;4.20;;;3.80;;
21258;SDS011;10787;53.364;-1.480;2022-07-23T14:39:38;4.70;;;3.90;;
21258;SDS011;10787;53.364;-1.480;2022-07-23T14:42:05;5.60;;;3.88;;
21258;SDS011;10787;53.364;-1.480;2022-07-23T14:44:31;6.53;;;4.60;;
21258;SDS011;10787;53.364;-1.480;2022-07-23T14:46:57;4.13;;;3.72;;
21258;SDS011;10787;53.364;-1.480;2022-07-23T14:49:25;4.40;;;3.70;;
21258;SDS011;10787;53.364;-1.480;2022-07-23T14:51:51;5.45;;;3.92;;
21258;SDS011;10787;53.364;-1.480;2022-07-23T14:54:17;5.68;;;4.00;;
21258;SDS011;10787;53.364;-1.480;2022-07-23T14:56:44;5.85;;;4.03;;
21258;SDS011;10787;53.364;-1.480;2022-07-23T14:59:10;6.45;;;3.90;;
21258;SDS011;10787;53.364;-1.480;2022-07-23T15:01:36;4.72;;;3.80;;
21258;SDS011;10787;53.364;-1.480;2022-07-23T15:04:03;4.90;;;3.90;;
21258;SDS011;10787;53.364;-1.480;2022-07-23T15:06:30;5.70;;;4.10;;
21258;SDS011;10787;53.364;-1.480;2022-07-23T15:08:56;5.53;;;4.10;;
21258;SDS011;10787;53.364;-1.480;2022-07-23T15:11:22;4.93;;;4.00;;
21258;SDS011;10787;53.364;-1.480;2022-07-23T15:13:48;8.93;;;4.20;;
21258;SDS011;10787;53.364;-1.480;2022-07-23T15:16:14;6.10;;;4.07;;
21258;SDS011;10787;53.364;-1.480;2022-07-23T15:18:41;4.45;;;3.85;;
21258;SDS011;10787;53.364;-1.480;2022-07-23T15:21:07;4.88;;;3.90;;
21258;SDS011;10787;53.364;-1.480;2022-07-23T15:23:33;5.43;;;4.00;;